Liberty of The Seas — C6VQ8 — position and weather

sailwx.info

Track history (hours):
 
Tides and Currents Weather Stations Pressure Air Temp Water Temp Dewpoint Dewpoint Depression Visibility Wind Speed Wind Dir Waves Ship Positions

Liberty of The Seas

Last reported at 2016-Dec-06 21:33 UTC. Time now 2016-Dec-08 06:01 UTC.
Position N 20°36' W 086°55'.

Type: Passenger vessel. MMSI: 309436000.

Date/timePositionNaut miles runAvg speedWind from/ knotsBaromVisibWave heightAir tempDewpointWater temp
2016-Dec-06 21:33N 20°36' W 086°55'7 7.3
2016-Dec-06 20:31N 20°29' W 086°59'0 0.0
2016-Dec-06 18:31N 20°29' W 086°59'0 0.0
2016-Dec-06 17:28N 20°29' W 086°59'0 0.0
2016-Dec-06 16:28N 20°29' W 086°59'0 0.0
2016-Dec-06 15:31N 20°29' W 086°59'0 0.0
2016-Dec-06 14:31N 20°29' W 086°59'0 0.0
2016-Dec-06 13:31N 20°29' W 086°59'0 0.0
2016-Dec-06 12:28N 20°29' W 086°59'1 1.2
2016-Dec-06 11:33N 20°30' W 086°59'  
2016-Dec-02 23:31N 20°34' W 086°57'6 5.8
2016-Dec-02 22:31N 20°29' W 086°59'0 0.0
2016-Dec-02 21:31N 20°29' W 086°59'0 0.0
2016-Dec-02 20:31N 20°29' W 086°59'0 0.0
2016-Dec-02 19:31N 20°29' W 086°59'0 0.0
2016-Dec-02 18:31N 20°29' W 086°59'0 0.0
2016-Dec-02 17:31N 20°29' W 086°59'0 0.0
2016-Dec-02 16:31N 20°29' W 086°59'0 0.0
2016-Dec-02 15:31N 20°29' W 086°59'0 0.0
2016-Dec-02 14:31N 20°29' W 086°59'0 0.0
2016-Dec-02 13:31N 20°29' W 086°59'1 1.5
2016-Dec-02 12:34N 20°28' W 086°60'  
2016-Nov-29 17:11N 20°23' W 087°03'711.6
2016-Nov-29 16:33N 20°29' W 086°59'1 1.3
2016-Nov-29 15:33N 20°30' W 086°58'67916.5
2016-Nov-27 22:30N 29°20' W 094°46'3 0.3
2016-Nov-27 13:18N 29°19' W 094°48'0 0.0
2016-Nov-27 12:10N 29°19' W 094°48'2 2.8
2016-Nov-27 11:22N 29°20' W 094°46'  
Track history (hours):
 
Tides and Currents Weather Stations Pressure Air Temp Water Temp Dewpoint Dewpoint Depression Visibility Wind Speed Wind Dir Waves Ship Positions

Liberty of The Seas

Last reported at 2016-Dec-06 21:33 UTC. Time now 2016-Dec-08 06:01 UTC.
Position N 20°36' W 086°55'.

Type: Passenger vessel. MMSI: 309436000.

Date/timePositionNaut miles runAvg speedWind from/ knotsBaromVisibWave heightAir tempDewpointWater temp
2016-Dec-06 21:33N 20°36' W 086°55'7 7.3
2016-Dec-06 20:31N 20°29' W 086°59'0 0.0
2016-Dec-06 18:31N 20°29' W 086°59'0 0.0
2016-Dec-06 17:28N 20°29' W 086°59'0 0.0
2016-Dec-06 16:28N 20°29' W 086°59'0 0.0
2016-Dec-06 15:31N 20°29' W 086°59'0 0.0
2016-Dec-06 14:31N 20°29' W 086°59'0 0.0
2016-Dec-06 13:31N 20°29' W 086°59'0 0.0
2016-Dec-06 12:28N 20°29' W 086°59'1 1.2
2016-Dec-06 11:33N 20°30' W 086°59'  
2016-Dec-02 23:31N 20°34' W 086°57'6 5.8
2016-Dec-02 22:31N 20°29' W 086°59'0 0.0
2016-Dec-02 21:31N 20°29' W 086°59'0 0.0
2016-Dec-02 20:31N 20°29' W 086°59'0 0.0
2016-Dec-02 19:31N 20°29' W 086°59'0 0.0
2016-Dec-02 18:31N 20°29' W 086°59'0 0.0
2016-Dec-02 17:31N 20°29' W 086°59'0 0.0
2016-Dec-02 16:31N 20°29' W 086°59'0 0.0
2016-Dec-02 15:31N 20°29' W 086°59'0 0.0
2016-Dec-02 14:31N 20°29' W 086°59'0 0.0
2016-Dec-02 13:31N 20°29' W 086°59'1 1.5
2016-Dec-02 12:34N 20°28' W 086°60'  
2016-Nov-29 17:11N 20°23' W 087°03'711.6
2016-Nov-29 16:33N 20°29' W 086°59'1 1.3
2016-Nov-29 15:33N 20°30' W 086°58'67916.5
2016-Nov-27 22:30N 29°20' W 094°46'3 0.3
2016-Nov-27 13:18N 29°19' W 094°48'0 0.0
2016-Nov-27 12:10N 29°19' W 094°48'2 2.8
2016-Nov-27 11:22N 29°20' W 094°46'  

Dump ship's entire track history